Time;durP1;ratioP1;P1;durP2;ratioP2;P2;SDS_P1;SDS_P2;PMS_P1;PMS_P2;Temp;Humidity;BMP_temperature;BMP_pressure;BME280_temperature;BME280_humidity;BME280_pressure;Samples;Min_cycle;Max_cycle;Signal;HPM_P1;HPM_P2
2022/05/30 00:02:07;;;;;;;6.93;1.65;;;;;;;10.90;69.24;99556.78;5040426;28;20016;-85
2022/05/30 00:04:35;;;;;;;11.70;2.90;;;;;;;10.97;67.60;99545.63;5040753;28;20072;-86
2022/05/30 00:07:00;;;;;;;6.05;1.75;;;;;;;11.20;67.95;99549.72;5040040;28;20074;-84
2022/05/30 00:09:26;;;;;;;5.40;2.25;;;;;;;10.92;68.42;99543.69;5040551;28;20045;-85
2022/05/30 00:11:51;;;;;;;10.43;1.53;;;;;;;11.13;68.77;99538.25;5040094;28;20772;-85
2022/05/30 00:14:17;;;;;;;6.68;1.73;;;;;;;10.76;69.66;99553.78;5040762;28;20282;-86
2022/05/30 00:16:42;;;;;;;7.72;2.08;;;;;;;11.00;68.71;99549.72;5039664;28;20112;-84
2022/05/30 00:19:07;;;;;;;3.05;1.50;;;;;;;11.15;67.60;99548.88;5039756;28;20048;-86
2022/05/30 00:21:32;;;;;;;7.80;2.10;;;;;;;10.78;68.81;99543.44;5039925;28;20025;-84
2022/05/30 00:23:58;;;;;;;7.33;1.67;;;;;;;10.84;69.57;99547.00;5039377;28;20300;-84
2022/05/30 00:26:23;;;;;;;6.63;1.92;;;;;;;10.67;70.10;99552.69;5041733;28;20625;-85
2022/05/30 00:28:49;;;;;;;11.45;2.55;;;;;;;10.57;70.23;99548.06;5039722;28;20407;-85
2022/05/30 00:31:17;;;;;;;4.47;1.73;;;;;;;10.83;70.17;99543.44;5041346;28;20025;-85
2022/05/30 00:33:44;;;;;;;8.40;1.83;;;;;;;10.62;71.51;99542.59;5050361;28;20059;-85
2022/05/30 00:36:10;;;;;;;7.72;1.58;;;;;;;10.85;70.12;99543.16;5061657;28;20029;-85
2022/05/30 00:38:36;;;;;;;10.88;1.75;;;;;;;10.80;70.13;99541.25;5061079;28;20468;-83
2022/05/30 00:41:02;;;;;;;9.65;1.50;;;;;;;10.91;68.87;99538.53;5060138;28;20036;-84
2022/05/30 00:46:18;;;;;;;23.23;4.15;;;;;;;10.30;71.66;99530.78;5038766;28;20052;-85
2022/05/30 00:48:48;;;;;;;7.80;1.75;;;;;;;10.25;71.93;99536.25;5039383;28;20380;-85
2022/05/30 00:51:17;;;;;;;11.75;1.85;;;;;;;10.22;71.92;99531.31;5023620;28;20040;-86
2022/05/30 00:53:46;;;;;;;10.60;3.05;;;;;;;10.37;72.43;99530.53;5035866;28;20052;-85
2022/05/30 00:56:13;;;;;;;13.75;3.85;;;;;;;10.15;73.80;99535.09;5045447;28;20040;-85
2022/05/30 00:58:45;;;;;;;12.00;3.10;;;;;;;10.09;74.37;99529.94;5044123;28;20037;-85
2022/05/30 01:01:11;;;;;;;7.25;3.03;;;;;;;9.92;73.45;99533.66;5045376;28;20343;-85
2022/05/30 01:06:30;;;;;;;11.00;4.03;;;;;;;10.32;72.97;99533.25;5045715;28;20064;-84
2022/05/30 01:08:57;;;;;;;11.35;1.92;;;;;;;10.32;73.01;99534.06;5044802;28;20064;-84
2022/05/30 01:11:22;;;;;;;6.80;2.03;;;;;;;10.64;71.09;99531.44;5044085;28;20455;-84
2022/05/30 01:13:47;;;;;;;9.05;2.70;;;;;;;10.30;73.26;99527.25;5044032;28;20388;-85
2022/05/30 01:16:13;;;;;;;9.13;1.95;;;;;;;10.11;72.56;99531.28;5043193;28;20093;-83
2022/05/30 01:18:48;;;;;;;5.07;1.77;;;;;;;10.31;72.91;99523.44;5043952;28;20031;-86
2022/05/30 01:21:22;;;;;;;4.93;1.90;;;;;;;10.33;72.14;99522.06;5041954;28;20041;-84
2022/05/30 01:23:54;;;;;;;6.32;1.90;;;;;;;10.06;72.42;99523.09;5042811;28;20040;-85
2022/05/30 01:26:39;;;;;;;31.25;5.18;;;;;;;10.14;73.45;99517.13;5043312;28;20033;-84
2022/05/30 01:29:28;;;;;;;14.73;2.85;;;;;;;10.11;73.79;99520.38;5043030;28;20033;-84
2022/05/30 01:31:54;;;;;;;9.93;2.47;;;;;;;9.91;73.12;99524.69;5039249;28;20041;-85
2022/05/30 01:34:24;;;;;;;7.57;2.97;;;;;;;9.87;73.75;99520.84;5042137;28;20036;-85
2022/05/30 01:36:50;;;;;;;9.23;2.13;;;;;;;10.23;72.65;99517.41;5041835;28;20013;-83
2022/05/30 01:39:16;;;;;;;5.65;2.20;;;;;;;10.32;72.11;99509.53;5045180;28;20029;-84
2022/05/30 01:41:41;;;;;;;8.63;2.00;;;;;;;10.30;72.01;99510.88;5043387;28;20480;-84
2022/05/30 01:44:07;;;;;;;8.25;2.03;;;;;;;10.33;72.78;99505.72;5045131;28;20086;-83
2022/05/30 01:46:32;;;;;;;7.20;1.90;;;;;;;10.13;73.25;99510.03;5043019;28;20024;-83
2022/05/30 01:48:59;;;;;;;7.38;2.20;;;;;;;10.00;73.49;99516.00;5045579;28;20025;-85
2022/05/30 01:51:24;;;;;;;9.10;2.30;;;;;;;9.81;74.99;99511.84;5043620;28;20047;-83
2022/05/30 01:53:50;;;;;;;9.48;2.30;;;;;;;10.02;74.69;99511.09;5044832;28;20696;-84
2022/05/30 01:56:29;;;;;;;11.65;2.35;;;;;;;9.88;75.00;99514.31;5041790;28;20458;-84
2022/05/30 01:58:54;;;;;;;8.73;3.50;;;;;;;9.95;75.36;99515.97;5043465;28;20119;-85
2022/05/30 02:01:22;;;;;;;15.40;4.20;;;;;;;9.89;76.14;99513.22;5044756;28;20024;-85
2022/05/30 02:03:49;;;;;;;6.88;2.15;;;;;;;9.97;75.45;99500.16;5042667;28;20320;-84
2022/05/30 02:06:15;;;;;;;8.13;2.45;;;;;;;9.93;74.67;99513.50;5044656;28;20463;-84
2022/05/30 02:08:41;;;;;;;15.80;3.15;;;;;;;9.94;75.64;99509.72;5043459;28;20021;-84
2022/05/30 02:11:10;;;;;;;8.30;2.65;;;;;;;9.93;74.44;99508.06;5044136;28;20377;-84
2022/05/30 02:13:37;;;;;;;8.95;3.95;;;;;;;9.81;75.88;99506.41;5044624;28;20064;-86
2022/05/30 02:18:53;;;;;;;14.48;3.75;;;;;;;10.34;72.97;99499.19;5043138;28;20040;-83
2022/05/30 02:21:18;;;;;;;11.15;2.45;;;;;;;10.33;73.49;99497.53;5045351;28;20033;-84
2022/05/30 02:23:43;;;;;;;7.53;2.13;;;;;;;10.23;73.65;99498.34;5046407;28;20047;-83
2022/05/30 02:26:09;;;;;;;6.63;2.40;;;;;;;10.31;73.12;99502.47;5045150;28;20029;-85
2022/05/30 02:28:36;;;;;;;11.57;2.22;;;;;;;10.03;74.78;99504.56;5046196;28;20025;-83
2022/05/30 02:31:02;;;;;;;12.98;2.30;;;;;;;9.99;74.96;99511.63;5044655;28;20094;-85
2022/05/30 02:38:55;;;;;;;9.48;2.10;;;;;;;10.19;74.39;99507.34;5043950;28;20404;-84
2022/05/30 02:41:21;;;;;;;6.53;2.73;;;;;;;10.06;73.71;99501.31;5046583;28;20021;-84
2022/05/30 02:43:46;;;;;;;4.63;2.72;;;;;;;10.12;74.41;99499.41;5044102;28;20271;-83
2022/05/30 02:46:12;;;;;;;12.40;4.10;;;;;;;9.87;74.28;99515.41;5045489;28;20029;-84
2022/05/30 02:48:37;;;;;;;6.70;1.83;;;;;;;9.80;73.87;99510.19;5044972;28;20411;-83
2022/05/30 02:51:02;;;;;;;9.63;2.57;;;;;;;9.71;74.93;99506.34;5044162;28;20028;-84
2022/05/30 02:53:28;;;;;;;7.38;2.00;;;;;;;9.81;75.49;99503.69;5043578;28;20779;-84
2022/05/30 02:55:53;;;;;;;10.50;3.00;;;;;;;9.82;74.62;99501.78;5040302;28;20036;-83
2022/05/30 02:58:18;;;;;;;11.73;2.35;;;;;;;10.27;73.71;99498.66;5044376;28;20025;-84
2022/05/30 03:00:44;;;;;;;10.50;2.70;;;;;;;10.27;73.64;99493.19;5042519;28;20075;-83
2022/05/30 03:03:09;;;;;;;5.65;2.10;;;;;;;10.19;73.59;99499.97;5037643;28;20340;-84
2022/05/30 03:05:37;;;;;;;9.67;2.20;;;;;;;9.97;73.80;99508.34;5041693;28;20078;-82
2022/05/30 03:08:07;;;;;;;7.13;1.92;;;;;;;9.83;75.28;99500.69;5042235;28;20672;-84
2022/05/30 03:10:33;;;;;;;12.05;2.83;;;;;;;10.21;73.33;99497.00;5041411;28;20408;-85
2022/05/30 03:12:58;;;;;;;8.90;2.45;;;;;;;10.25;73.51;99498.09;5043561;28;20028;-86
2022/05/30 03:15:24;;;;;;;11.77;4.65;;;;;;;10.50;72.12;99499.25;5045052;28;20033;-86
2022/05/30 03:17:51;;;;;;;7.70;3.30;;;;;;;10.28;72.65;99503.00;5040748;28;20049;-86
2022/05/30 03:20:17;;;;;;;6.95;2.25;;;;;;;10.15;73.52;99504.31;5044640;28;20068;-85
2022/05/30 03:22:43;;;;;;;8.95;2.40;;;;;;;10.30;73.54;99505.44;5043318;28;20029;-84
2022/05/30 03:25:09;;;;;;;9.38;2.40;;;;;;;10.04;73.50;99506.22;5042409;28;20047;-84
2022/05/30 03:27:34;;;;;;;11.35;2.38;;;;;;;10.17;74.39;99513.03;5044952;28;20146;-85
2022/05/30 03:29:59;;;;;;;10.43;2.73;;;;;;;10.04;73.87;99517.94;5042933;28;20108;-86
2022/05/30 03:32:24;;;;;;;11.23;3.00;;;;;;;10.01;74.80;99512.16;5044897;28;20293;-85
2022/05/30 03:34:50;;;;;;;9.63;2.03;;;;;;;10.03;73.25;99515.44;5044702;28;20705;-85
2022/05/30 03:37:15;;;;;;;9.67;3.67;;;;;;;9.97;73.90;99519.22;5047163;28;20353;-85
2022/05/30 03:39:40;;;;;;;6.10;2.13;;;;;;;10.22;73.10;99518.50;5045587;28;20269;-85
2022/05/30 03:42:06;;;;;;;8.25;2.97;;;;;;;10.34;73.36;99518.28;5045945;28;20027;-85
2022/05/30 03:44:31;;;;;;;6.45;2.13;;;;;;;10.21;73.47;99513.34;5047031;28;20036;-85
2022/05/30 03:46:57;;;;;;;19.90;3.78;;;;;;;10.07;73.83;99518.47;5045196;28;20495;-86
2022/05/30 03:49:22;;;;;;;6.33;2.00;;;;;;;10.23;73.08;99517.41;5047387;28;20028;-86
2022/05/30 03:51:47;;;;;;;7.80;2.67;;;;;;;10.02;74.27;99525.53;5058759;28;20265;-84
2022/05/30 03:54:13;;;;;;;10.00;2.42;;;;;;;10.24;73.72;99518.25;5051263;28;20021;-84
2022/05/30 03:56:38;;;;;;;12.00;2.55;;;;;;;10.43;73.34;99520.47;5045202;28;20083;-86
2022/05/30 03:59:03;;;;;;;7.00;2.63;;;;;;;10.34;74.50;99517.44;5046749;28;20033;-86
2022/05/30 04:01:28;;;;;;;9.40;1.90;;;;;;;9.99;75.28;99525.22;5047001;28;20025;-86
2022/05/30 04:03:54;;;;;;;9.32;3.15;;;;;;;10.09;75.23;99528.00;5045415;28;20033;-84
2022/05/30 04:06:19;;;;;;;9.07;1.73;;;;;;;10.30;73.59;99514.44;5046009;28;20068;-85
2022/05/30 04:08:44;;;;;;;12.93;2.80;;;;;;;10.13;74.99;99520.94;5045426;28;20273;-85
2022/05/30 04:11:10;;;;;;;14.57;3.65;;;;;;;10.13;73.91;99517.38;5047473;28;20323;-85
2022/05/30 04:13:35;;;;;;;14.93;2.23;;;;;;;10.30;73.53;99517.16;5045383;28;20131;-86
2022/05/30 04:16:13;;;;;;;11.85;2.33;;;;;;;10.23;73.25;99516.63;5048004;28;20713;-86
2022/05/30 04:18:39;;;;;;;9.05;2.13;;;;;;;10.48;71.68;99523.19;5046667;28;20021;-85
2022/05/30 04:21:09;;;;;;;13.52;4.53;;;;;;;10.46;72.53;99525.38;5046037;28;20104;-85
2022/05/30 04:23:35;;;;;;;10.55;3.22;;;;;;;10.23;73.31;99522.84;5045585;28;20082;-85
2022/05/30 04:26:03;;;;;;;6.18;2.72;;;;;;;10.24;73.66;99515.50;5044558;28;20029;-85
2022/05/30 04:28:29;;;;;;;9.68;2.53;;;;;;;10.31;74.05;99518.81;5047673;28;20025;-86
2022/05/30 04:34:17;;;;;;;13.40;2.95;;;;;;;10.18;73.31;99516.59;5044352;28;20048;-85
2022/05/30 04:36:43;;;;;;;6.28;2.35;;;;;;;10.25;73.13;99523.41;5047135;28;20029;-85
2022/05/30 04:39:08;;;;;;;6.30;1.90;;;;;;;10.53;72.61;99525.97;5045375;28;20064;-85
2022/05/30 04:41:33;;;;;;;7.72;1.80;;;;;;;10.66;70.88;99529.25;5047076;28;20025;-85
2022/05/30 04:43:59;;;;;;;7.07;1.70;;;;;;;10.74;69.21;99532.25;5045790;28;20025;-85
2022/05/30 04:46:25;;;;;;;9.77;2.92;;;;;;;10.91;68.83;99524.88;5046301;28;20105;-83
2022/05/30 04:48:50;;;;;;;13.82;2.58;;;;;;;10.71;70.36;99531.97;5046537;28;20032;-85
2022/05/30 04:51:15;;;;;;;7.73;3.43;;;;;;;10.61;70.86;99536.34;5054846;28;20447;-86
2022/05/30 04:53:41;;;;;;;13.82;2.72;;;;;;;10.62;70.20;99537.13;5055382;28;20292;-85
2022/05/30 04:56:06;;;;;;;8.82;2.50;;;;;;;10.44;71.54;99538.44;5045090;28;20029;-84
2022/05/30 04:58:34;;;;;;;12.23;2.55;;;;;;;10.38;71.10;99543.91;5047085;28;20021;-85
2022/05/30 05:01:02;;;;;;;6.78;2.10;;;;;;;10.44;72.39;99543.91;5043265;28;20037;-85
2022/05/30 05:03:29;;;;;;;9.60;3.00;;;;;;;10.54;70.52;99543.94;5044964;28;20040;-86
2022/05/30 05:06:08;;;;;;;7.18;3.33;;;;;;;10.47;71.85;99543.38;5045575;28;20086;-85
2022/05/30 05:08:43;;;;;;;13.40;5.35;;;;;;;10.33;72.16;99546.59;5045550;28;20036;-85
2022/05/30 05:11:11;;;;;;;12.98;3.47;;;;;;;10.65;70.59;99546.69;5047024;28;20123;-85
2022/05/30 05:13:37;;;;;;;11.35;3.85;;;;;;;10.48;70.80;99537.66;5044341;28;20410;-86
2022/05/30 05:16:02;;;;;;;10.30;3.30;;;;;;;10.54;70.75;99541.22;5046616;28;20017;-85
2022/05/30 05:18:27;;;;;;;7.93;3.20;;;;;;;10.75;69.79;99538.53;5044229;28;20982;-85
2022/05/30 05:21:06;;;;;;;10.10;2.83;;;;;;;10.96;68.27;99538.53;5045779;28;20104;-85
2022/05/30 05:23:31;;;;;;;7.93;2.40;;;;;;;10.93;69.83;99544.53;5046399;28;20029;-85
2022/05/30 05:25:57;;;;;;;8.25;2.80;;;;;;;10.75;69.93;99543.97;5045488;28;20120;-85
2022/05/30 05:28:22;;;;;;;5.72;2.20;;;;;;;10.72;70.08;99541.78;5046279;28;20036;-84
2022/05/30 05:30:48;;;;;;;9.45;2.63;;;;;;;11.09;68.88;99538.00;5044012;28;20494;-85
2022/05/30 05:33:14;;;;;;;18.83;2.80;;;;;;;11.40;67.70;99541.75;5045942;28;20146;-84
2022/05/30 05:35:52;;;;;;;7.20;2.10;;;;;;;11.14;67.52;99544.53;5044969;28;20035;-85
2022/05/30 05:38:18;;;;;;;7.53;3.22;;;;;;;11.19;67.64;99548.06;5048564;28;20021;-85
2022/05/30 05:40:47;;;;;;;10.50;3.05;;;;;;;11.31;67.44;99553.25;5049935;28;20037;-85
2022/05/30 05:43:13;;;;;;;8.52;2.65;;;;;;;11.33;67.17;99555.69;5048443;28;20044;-85
2022/05/30 05:45:41;;;;;;;9.25;2.63;;;;;;;11.04;67.42;99562.56;5049370;28;20475;-84
2022/05/30 05:48:08;;;;;;;7.70;2.47;;;;;;;11.12;67.64;99553.00;5045503;28;20087;-85
2022/05/30 05:50:33;;;;;;;15.43;2.92;;;;;;;11.17;67.48;99555.72;5048999;28;20025;-86
2022/05/30 05:52:58;;;;;;;10.63;2.72;;;;;;;11.05;68.33;99557.91;5047372;28;20098;-85
2022/05/30 05:55:24;;;;;;;17.10;4.90;;;;;;;10.94;68.46;99557.09;5049205;28;20116;-85
2022/05/30 05:57:49;;;;;;;9.07;2.05;;;;;;;11.28;67.64;99551.06;5048903;28;20265;-85
2022/05/30 06:00:16;;;;;;;9.68;2.15;;;;;;;11.10;68.43;99563.38;5044574;28;20024;-85
2022/05/30 06:02:42;;;;;;;17.73;2.92;;;;;;;11.30;67.66;99565.25;5046050;28;20039;-83
2022/05/30 06:05:11;;;;;;;9.95;2.45;;;;;;;11.08;66.94;99563.63;5046065;28;20025;-84
2022/05/30 06:07:38;;;;;;;10.55;2.25;;;;;;;11.20;66.19;99568.81;5048893;28;20064;-85
2022/05/30 06:10:05;;;;;;;8.32;3.17;;;;;;;11.36;66.65;99568.81;5042434;28;20099;-84
2022/05/30 06:12:34;;;;;;;11.20;2.55;;;;;;;11.19;67.56;99566.34;5043532;28;20033;-82
2022/05/30 06:14:59;;;;;;;14.25;3.25;;;;;;;11.20;66.36;99576.19;5044129;28;20329;-86
2022/05/30 06:20:10;;;;;;;10.07;3.47;;;;;;;11.17;67.63;99571.25;5044372;28;20261;-87
2022/05/30 06:22:35;;;;;;;8.00;2.90;;;;;;;11.25;66.14;99578.91;5042789;28;20037;-87
2022/05/30 06:25:01;;;;;;;6.80;2.40;;;;;;;11.31;65.68;99576.97;5044834;28;20025;-88
2022/05/30 06:27:26;;;;;;;9.60;2.63;;;;;;;11.11;67.72;99575.06;5043082;28;20054;-87
2022/05/30 06:29:52;;;;;;;11.30;3.38;;;;;;;11.31;67.71;99582.44;5044674;28;20254;-87
2022/05/30 06:32:18;;;;;;;8.35;2.30;;;;;;;11.48;68.38;99576.69;5044963;28;20529;-87
2022/05/30 06:34:43;;;;;;;9.30;4.15;;;;;;;11.66;66.38;99583.50;5033134;28;20021;-89
2022/05/30 06:37:10;;;;;;;13.93;2.92;;;;;;;11.85;65.79;99576.63;5048171;28;20503;-89
2022/05/30 06:39:36;;;;;;;10.20;2.45;;;;;;;11.98;63.93;99577.94;5045403;28;20032;-89
2022/05/30 06:42:16;;;;;;;6.50;2.97;;;;;;;12.12;64.40;99583.66;5044647;28;20031;-88
2022/05/30 06:44:41;;;;;;;9.98;3.35;;;;;;;12.17;63.74;99575.44;5042774;28;20499;-88
2022/05/30 06:47:08;;;;;;;8.47;2.30;;;;;;;12.05;63.70;99583.91;5043803;28;20298;-89
2022/05/30 06:49:34;;;;;;;5.60;1.95;;;;;;;12.08;65.22;99577.88;5042854;28;20725;-88
2022/05/30 06:51:59;;;;;;;12.95;2.67;;;;;;;12.21;63.48;99581.97;5046808;28;20119;-86
2022/05/30 06:54:25;;;;;;;11.05;2.72;;;;;;;11.88;64.25;99586.97;5048763;28;20112;-87
2022/05/30 06:59:35;;;;;;;;;;;;;;;11.98;63.84;99583.41;5049185;28;20147;-87
2022/05/30 07:02:01;;;;;;;9.40;3.20;;;;;;;12.20;62.42;99587.72;5042476;28;20502;-88
2022/05/30 07:04:31;;;;;;;9.35;1.88;;;;;;;12.29;63.46;99596.13;5042863;28;20514;-88
2022/05/30 07:06:56;;;;;;;10.70;2.75;;;;;;;12.15;63.28;99602.22;5042150;28;20530;-87
2022/05/30 07:09:21;;;;;;;8.17;2.17;;;;;;;12.36;60.70;99593.94;5041436;28;20045;-86
2022/05/30 07:11:49;;;;;;;8.95;3.03;;;;;;;12.47;59.64;99600.97;5042645;28;20685;-87
2022/05/30 07:14:16;;;;;;;6.75;1.75;;;;;;;12.59;59.58;99602.56;5037869;28;20105;-86
2022/05/30 07:16:42;;;;;;;6.50;2.53;;;;;;;12.37;59.63;99601.84;5042676;28;20025;-86
2022/05/30 07:19:09;;;;;;;8.63;1.70;;;;;;;12.47;59.95;99594.69;5041301;28;20051;-87
2022/05/30 07:21:34;;;;;;;7.60;2.17;;;;;;;12.54;59.05;99602.59;5040308;28;20037;-87
2022/05/30 07:24:00;;;;;;;7.90;2.08;;;;;;;12.51;59.29;99605.91;5036170;28;20057;-86
2022/05/30 07:26:25;;;;;;;9.63;4.13;;;;;;;12.61;59.94;99611.28;5040737;28;20060;-87
2022/05/30 07:28:53;;;;;;;8.70;2.23;;;;;;;12.63;59.12;99609.09;5037601;28;20032;-87
2022/05/30 07:31:20;;;;;;;9.10;2.78;;;;;;;12.56;58.98;99608.59;5039476;28;20269;-86
2022/05/30 07:33:48;;;;;;;12.68;5.00;;;;;;;12.39;59.95;99598.81;5041061;28;20043;-88
2022/05/30 07:36:17;;;;;;;9.02;2.53;;;;;;;12.54;60.29;99606.16;5036327;28;20033;-89
2022/05/30 07:38:42;;;;;;;11.27;2.97;;;;;;;12.33;61.23;99600.78;5035845;28;20453;-87
2022/05/30 07:41:08;;;;;;;5.53;1.70;;;;;;;12.41;60.92;99601.31;5041604;28;20110;-86
2022/05/30 07:43:48;;;;;;;7.10;2.42;;;;;;;12.67;60.52;99601.16;5039642;28;20041;-88
2022/05/30 07:46:16;;;;;;;8.27;2.47;;;;;;;12.72;61.35;99601.94;5042068;28;20045;-88
2022/05/30 07:48:42;;;;;;;9.75;2.90;;;;;;;12.45;61.44;99602.34;5039139;28;20037;-88
2022/05/30 07:51:09;;;;;;;6.15;2.25;;;;;;;12.65;61.29;99601.41;5041856;28;20045;-87
2022/05/30 07:53:36;;;;;;;11.68;3.67;;;;;;;12.72;60.09;99607.41;5045255;28;20102;-87
2022/05/30 07:56:11;;;;;;;13.55;3.97;;;;;;;12.75;59.03;99599.72;5042120;28;20372;-87
2022/05/30 07:58:37;;;;;;;12.60;3.53;;;;;;;12.63;59.12;99600.88;5041753;28;20239;-87
2022/05/30 08:01:04;;;;;;;13.02;2.72;;;;;;;12.73;59.98;99602.75;5041296;28;20017;-87
2022/05/30 08:03:30;;;;;;;10.63;3.00;;;;;;;12.93;59.83;99601.81;5041586;28;20084;-87
2022/05/30 08:06:06;;;;;;;13.57;4.57;;;;;;;13.02;58.61;99599.25;5053591;28;20056;-86
2022/05/30 08:08:32;;;;;;;6.32;2.42;;;;;;;13.11;57.57;99604.13;5060894;28;20066;-87
2022/05/30 08:10:57;;;;;;;8.60;3.88;;;;;;;12.95;57.52;99604.25;5039030;28;20128;-87
2022/05/30 08:13:22;;;;;;;10.37;3.97;;;;;;;12.92;56.49;99600.16;5039682;28;20047;-88
2022/05/30 08:15:47;;;;;;;15.18;4.03;;;;;;;13.47;56.29;99603.00;5040108;28;20260;-87
2022/05/30 08:21:17;;;;;;;9.63;3.03;;;;;;;13.26;56.09;99603.19;5038175;28;20293;-87
2022/05/30 08:23:43;;;;;;;7.05;3.38;;;;;;;13.27;55.63;99604.81;5037942;28;20037;-87
2022/05/30 08:26:08;;;;;;;7.82;3.05;;;;;;;13.22;55.82;99605.66;5041283;28;20380;-88
2022/05/30 08:28:34;;;;;;;13.80;4.30;;;;;;;13.22;55.32;99605.66;5039775;28;20037;-87
2022/05/30 08:31:01;;;;;;;7.22;3.55;;;;;;;13.44;55.05;99601.66;5038947;28;20025;-87
2022/05/30 08:33:27;;;;;;;11.60;3.35;;;;;;;13.53;55.68;99601.84;5040491;28;20040;-88
2022/05/30 08:36:07;;;;;;;12.25;4.90;;;;;;;13.21;56.88;99606.78;5039844;28;20124;-87
2022/05/30 08:38:36;;;;;;;13.55;4.18;;;;;;;13.27;57.87;99611.13;5041577;28;20041;-88
2022/05/30 08:43:55;;;;;;;16.77;2.38;;;;;;;13.53;55.35;99601.84;5040744;28;20495;-88
2022/05/30 08:46:32;;;;;;;5.53;2.35;;;;;;;13.70;55.09;99604.19;5040639;28;20041;-88
2022/05/30 08:49:22;;;;;;;16.05;2.35;;;;;;;13.75;54.48;99603.31;5019172;28;20052;-87
2022/05/30 08:51:59;;;;;;;8.18;3.55;;;;;;;13.93;53.29;99609.16;5034427;28;20029;-88
2022/05/30 08:54:37;;;;;;;8.77;2.55;;;;;;;13.84;51.79;99606.22;5039728;28;20527;-88
2022/05/30 08:57:15;;;;;;;4.93;2.17;;;;;;;13.85;52.87;99616.88;5040029;28;20499;-87
2022/05/30 09:00:25;;;;;;;11.75;3.55;;;;;;;14.15;53.45;99621.50;5039598;28;20899;-87
2022/05/30 09:02:57;;;;;;;9.43;2.55;;;;;;;13.72;51.73;99612.94;5030670;28;20041;-87
2022/05/30 09:08:24;;;;;;;8.90;2.80;;;;;;;14.03;53.05;99609.03;5033228;28;20032;-87
2022/05/30 09:11:00;;;;;;;12.02;2.83;;;;;;;13.84;51.87;99609.78;5039133;28;20454;-87
2022/05/30 09:13:34;;;;;;;7.47;3.30;;;;;;;13.77;52.51;99610.13;5043846;28;20060;-87
2022/05/30 09:16:30;;;;;;;8.25;2.65;;;;;;;13.80;52.60;99611.47;5043113;28;20025;-86
2022/05/30 09:18:58;;;;;;;9.38;2.40;;;;;;;13.33;53.06;99616.53;5024109;28;20123;-86
2022/05/30 09:21:27;;;;;;;12.35;3.58;;;;;;;13.77;52.55;99606.56;5024298;28;20029;-87
2022/05/30 09:23:53;;;;;;;8.13;2.80;;;;;;;14.09;52.42;99610.63;5034985;28;20075;-86
2022/05/30 09:26:31;;;;;;;9.20;3.60;;;;;;;14.10;50.32;99609.50;5044531;28;20533;-87
2022/05/30 09:29:02;;;;;;;11.85;3.08;;;;;;;14.41;49.82;99605.56;5042789;28;20060;-86
2022/05/30 09:31:46;;;;;;;9.60;3.13;;;;;;;14.48;50.52;99602.47;5042945;28;20021;-86
2022/05/30 09:34:35;;;;;;;6.28;2.67;;;;;;;14.82;48.84;99601.44;5042884;28;20060;-87
2022/05/30 09:37:01;;;;;;;11.05;2.42;;;;;;;14.93;48.34;99604.03;5043329;28;20061;-87
2022/05/30 09:39:28;;;;;;;8.55;3.50;;;;;;;15.04;48.53;99608.25;5044015;28;20496;-86
2022/05/30 09:41:57;;;;;;;9.73;2.28;;;;;;;15.02;46.58;99604.16;5042427;28;20025;-84
2022/05/30 09:44:26;;;;;;;5.57;2.42;;;;;;;14.72;46.70;99615.28;5043487;28;20128;-86
2022/05/30 09:46:56;;;;;;;10.00;2.80;;;;;;;14.67;48.27;99607.94;5042441;28;20024;-85
2022/05/30 09:49:44;;;;;;;5.28;2.72;;;;;;;14.35;48.76;99612.22;5042172;28;20156;-86
2022/05/30 09:52:39;;;;;;;4.82;2.13;;;;;;;14.30;47.82;99612.28;5042567;28;20873;-86
2022/05/30 09:55:26;;;;;;;7.05;2.50;;;;;;;14.24;48.88;99611.50;5023532;28;20427;-87
2022/05/30 09:57:53;;;;;;;8.23;3.55;;;;;;;14.05;51.64;99615.06;5022894;28;20124;-86
2022/05/30 10:00:28;;;;;;;9.60;2.90;;;;;;;13.72;52.94;99609.38;5024494;28;20047;-87
2022/05/30 10:03:01;;;;;;;24.42;3.55;;;;;;;13.79;51.52;99615.31;5027248;28;20901;-87
2022/05/30 10:05:29;;;;;;;13.07;3.10;;;;;;;13.97;51.72;99624.69;5044442;28;20099;-86
2022/05/30 10:07:58;;;;;;;11.63;3.65;;;;;;;14.03;51.04;99610.97;5043543;28;20047;-88
2022/05/30 10:10:46;;;;;;;7.03;3.85;;;;;;;13.91;50.65;99611.38;5042481;28;20132;-87
2022/05/30 10:13:12;;;;;;;12.52;4.80;;;;;;;14.18;51.44;99620.91;5044321;28;20037;-87
2022/05/30 10:15:42;;;;;;;7.68;4.95;;;;;;;14.08;50.29;99619.94;5041147;28;20102;-86
2022/05/30 10:18:10;;;;;;;6.57;3.97;;;;;;;14.27;50.09;99618.34;5042213;28;20471;-87
2022/05/30 10:21:00;;;;;;;11.38;4.68;;;;;;;14.36;49.89;99617.41;5040776;28;20037;-85
2022/05/30 10:30:02;;;;;;;9.57;5.40;;;;;;;14.37;47.34;99629.19;5041396;28;20563;-87
2022/05/30 10:33:02;;;;;;;5.85;4.43;;;;;;;14.50;48.64;99627.66;5039265;28;20039;-87
2022/05/30 10:35:46;;;;;;;12.15;4.93;;;;;;;14.04;49.11;99631.75;5040534;28;20107;-87
2022/05/30 10:38:27;;;;;;;10.10;4.50;;;;;;;14.34;49.10;99627.84;5040022;28;20028;-87
2022/05/30 10:41:11;;;;;;;8.48;4.43;;;;;;;14.59;48.19;99627.81;5037473;28;20097;-87
2022/05/30 10:43:57;;;;;;;7.90;4.55;;;;;;;14.93;47.28;99631.47;5042884;28;20064;-86
2022/05/30 10:46:56;;;;;;;11.10;3.78;;;;;;;15.10;46.09;99624.63;5040923;28;20607;-86
2022/05/30 10:49:24;;;;;;;6.82;3.42;;;;;;;15.20;45.67;99635.47;5041172;28;20041;-86
2022/05/30 10:52:06;;;;;;;8.90;4.07;;;;;;;15.50;46.23;99627.81;5042995;28;20024;-88
2022/05/30 10:54:37;;;;;;;8.93;4.25;;;;;;;15.58;45.47;99631.00;5040587;28;20045;-86
2022/05/30 10:57:08;;;;;;;8.80;3.00;;;;;;;15.22;46.00;99627.72;5042287;28;20597;-86
2022/05/30 10:59:43;;;;;;;6.85;3.65;;;;;;;15.55;47.37;99626.91;5038343;28;20037;-87
2022/05/30 11:02:33;;;;;;;10.35;3.17;;;;;;;15.45;45.56;99630.66;5041182;28;20028;-87
2022/05/30 11:05:07;;;;;;;7.90;2.92;;;;;;;15.60;45.49;99629.56;5039784;28;20411;-86
2022/05/30 11:07:33;;;;;;;5.25;2.40;;;;;;;15.57;45.23;99626.63;5040439;28;20029;-87
2022/05/30 11:10:38;;;;;;;8.90;3.63;;;;;;;15.61;45.13;99630.38;5041228;28;20041;-86
2022/05/30 11:13:18;;;;;;;8.45;2.95;;;;;;;15.66;45.78;99627.56;5039704;28;20472;-87
2022/05/30 11:15:49;;;;;;;8.43;3.13;;;;;;;15.65;44.27;99631.41;5037430;28;20045;-87
2022/05/30 11:18:26;;;;;;;7.22;3.75;;;;;;;15.81;43.92;99631.94;5042059;28;20056;-87
2022/05/30 11:21:12;;;;;;;7.50;2.05;;;;;;;15.90;43.07;99632.06;5040092;28;20131;-86
2022/05/30 11:23:38;;;;;;;8.02;2.30;;;;;;;16.02;44.04;99633.53;5038577;28;20040;-86
2022/05/30 11:26:50;;;;;;;5.57;2.58;;;;;;;15.61;43.79;99625.72;5041302;28;20033;-87
2022/05/30 11:29:46;;;;;;;6.75;2.25;;;;;;;15.63;43.22;99637.22;5036550;28;20179;-87
2022/05/30 11:32:44;;;;;;;6.72;2.10;;;;;;;15.74;43.94;99626.03;5039560;28;20482;-87
2022/05/30 11:38:31;;;;;;;5.38;2.38;;;;;;;15.96;44.41;99635.53;5022279;28;20044;-86
2022/05/30 11:41:15;;;;;;;9.00;1.90;;;;;;;15.76;43.05;99637.56;5028752;28;20037;-87
2022/05/30 11:44:10;;;;;;;7.07;1.98;;;;;;;15.55;42.86;99634.34;5040884;28;20415;-87
2022/05/30 11:46:38;;;;;;;;;;;;;;;15.72;44.37;99640.06;5037701;28;20045;-87
2022/05/30 11:49:24;;;;;;;6.38;1.10;;;;;;;15.54;43.01;99635.47;5040071;28;19997;-87
2022/05/30 11:52:15;;;;;;;4.35;1.60;;;;;;;15.63;43.60;99639.16;5039041;28;20497;-86
2022/05/30 11:54:52;;;;;;;3.88;1.30;;;;;;;15.76;42.36;99632.84;5038768;28;20495;-86
2022/05/30 11:57:43;;;;;;;3.72;1.65;;;;;;;15.91;42.72;99639.19;5040962;28;20055;-86
2022/05/30 12:00:31;;;;;;;9.75;2.63;;;;;;;15.99;42.14;99635.72;5037954;28;20045;-87
2022/05/30 12:03:00;;;;;;;7.95;1.73;;;;;;;16.16;42.62;99634.34;5032900;28;20051;-86
2022/05/30 12:06:03;;;;;;;8.38;2.58;;;;;;;16.10;41.99;99635.56;5040007;28;20132;-85
2022/05/30 12:08:47;;;;;;;5.60;2.30;;;;;;;16.45;41.65;99630.44;5020624;28;20033;-85
2022/05/30 12:11:22;;;;;;;4.07;1.35;;;;;;;16.40;40.69;99633.31;5034717;28;20045;-87
2022/05/30 12:14:21;;;;;;;4.43;1.33;;;;;;;16.28;40.30;99627.50;5041386;28;20065;-86
2022/05/30 12:17:00;;;;;;;5.47;1.60;;;;;;;16.48;40.62;99634.50;5037320;28;20056;-87
2022/05/30 12:25:35;;;;;;;2.97;1.48;;;;;;;16.24;42.80;99629.25;5036596;28;20664;-86
2022/05/30 12:28:02;;;;;;;5.75;2.65;;;;;;;16.39;42.99;99633.63;5040969;28;20043;-86
2022/05/30 12:30:33;;;;;;;2.70;1.30;;;;;;;16.27;42.59;99639.66;5039783;28;20084;-85
2022/05/30 12:32:58;;;;;;;4.20;1.67;;;;;;;16.36;43.19;99626.78;5038208;28;20033;-86
2022/05/30 12:35:27;;;;;;;3.92;2.10;;;;;;;16.05;43.09;99638.44;5040767;28;20037;-86